Time;durP1;ratioP1;P1;durP2;ratioP2;P2;SDS_P1;SDS_P2;PMS_P1;PMS_P2;Temp;Humidity;BMP_temperature;BMP_pressure;BME280_temperature;BME280_humidity;BME280_pressure;Samples;Min_cycle;Max_cycle;Signal;HPM_P1;HPM_P2
2021/10/23 00:01:10;;;;;;;7.10;2.93;;;8.70;81.70;;;;;;5026165;28;20249;-76
2021/10/23 00:03:36;;;;;;;6.87;2.60;;;8.80;81.80;;;;;;5030776;28;20675;-75
2021/10/23 00:06:02;;;;;;;7.23;2.80;;;8.80;81.70;;;;;;5031580;28;20216;-73
2021/10/23 00:08:28;;;;;;;4.37;2.27;;;8.80;81.90;;;;;;5031563;28;20196;-74
2021/10/23 00:10:53;;;;;;;4.73;2.20;;;8.80;81.90;;;;;;5031639;28;20795;-74
2021/10/23 00:13:19;;;;;;;4.20;2.10;;;8.70;82.20;;;;;;5030160;28;20215;-73
2021/10/23 00:15:45;;;;;;;8.23;2.63;;;8.70;82.70;;;;;;5036200;28;20216;-74
2021/10/23 00:18:10;;;;;;;3.73;2.20;;;8.70;82.70;;;;;;5037124;28;20188;-74
2021/10/23 00:20:36;;;;;;;6.03;2.70;;;8.70;82.80;;;;;;5032852;28;20200;-74
2021/10/23 00:23:02;;;;;;;5.53;2.30;;;8.70;82.80;;;;;;5031123;28;20217;-75
2021/10/23 00:25:28;;;;;;;7.97;2.47;;;8.70;83.00;;;;;;5033745;28;20193;-76
2021/10/23 00:27:55;;;;;;;7.27;2.83;;;8.70;83.00;;;;;;5035941;28;20189;-73
2021/10/23 00:30:23;;;;;;;3.50;2.20;;;8.70;83.00;;;;;;5042396;28;20583;-74
2021/10/23 00:32:49;;;;;;;6.17;2.47;;;8.70;83.00;;;;;;5042742;28;20436;-75
2021/10/23 00:35:15;;;;;;;5.97;2.80;;;8.80;83.10;;;;;;5041100;28;20451;-72
2021/10/23 00:37:40;;;;;;;5.17;2.80;;;8.90;83.00;;;;;;5045385;28;20451;-74
2021/10/23 00:40:07;;;;;;;3.73;2.73;;;8.90;82.70;;;;;;5043645;28;20207;-75
2021/10/23 00:42:34;;;;;;;7.40;2.40;;;8.90;82.70;;;;;;5037784;28;20201;-74
2021/10/23 00:45:00;;;;;;;7.30;2.37;;;8.90;82.70;;;;;;5030799;28;20498;-74
2021/10/23 00:47:26;;;;;;;2.33;2.00;;;8.90;83.00;;;;;;5030842;28;20956;-75
2021/10/23 00:49:53;;;;;;;4.03;2.40;;;8.90;83.10;;;;;;5029918;28;20475;-75
2021/10/23 00:52:24;;;;;;;5.77;2.60;;;8.90;82.70;;;;;;5022392;28;20221;-74
2021/10/23 00:54:51;;;;;;;6.50;2.67;;;8.90;83.00;;;;;;5029762;28;20428;-75
2021/10/23 00:57:17;;;;;;;6.87;3.00;;;8.90;83.10;;;;;;5030273;28;20473;-75
2021/10/23 00:59:44;;;;;;;5.97;4.17;;;8.90;83.40;;;;;;5026315;28;20424;-75
2021/10/23 01:02:09;;;;;;;3.10;2.40;;;8.90;83.70;;;;;;5029516;28;20926;-74
2021/10/23 01:04:35;;;;;;;5.63;2.57;;;9.00;83.40;;;;;;5039638;28;20444;-73
2021/10/23 01:07:02;;;;;;;8.50;2.43;;;9.00;83.10;;;;;;5033698;28;20197;-75
2021/10/23 01:09:28;;;;;;;5.33;2.83;;;9.10;83.00;;;;;;5030001;28;20467;-74
2021/10/23 01:11:54;;;;;;;4.40;2.47;;;9.10;82.80;;;;;;5029651;28;20448;-75
2021/10/23 01:14:22;;;;;;;9.07;3.53;;;9.10;82.80;;;;;;5031603;28;20549;-73
2021/10/23 01:16:50;;;;;;;5.40;2.57;;;9.00;83.30;;;;;;5032608;28;20782;-74
2021/10/23 01:19:16;;;;;;;6.50;2.77;;;9.00;83.30;;;;;;5030988;28;20435;-75
2021/10/23 01:21:45;;;;;;;5.10;2.37;;;9.00;83.40;;;;;;5033047;28;20428;-74
2021/10/23 01:24:11;;;;;;;4.77;2.70;;;8.90;83.80;;;;;;5036370;28;20436;-73
2021/10/23 01:26:38;;;;;;;10.20;2.53;;;8.80;84.10;;;;;;5035128;28;20546;-74
2021/10/23 01:29:06;;;;;;;7.23;2.47;;;8.80;84.40;;;;;;5034966;28;20328;-74
2021/10/23 01:31:32;;;;;;;5.87;2.90;;;8.80;84.40;;;;;;5039147;28;20433;-74
2021/10/23 01:33:58;;;;;;;5.63;2.60;;;8.80;84.60;;;;;;5042601;28;20427;-74
2021/10/23 01:36:24;;;;;;;8.43;2.53;;;8.80;84.60;;;;;;5038205;28;20431;-74
2021/10/23 01:38:50;;;;;;;6.87;2.90;;;8.80;84.40;;;;;;5034154;28;20201;-77
2021/10/23 01:44:37;;;;;;;3.53;2.43;;;8.80;84.70;;;;;;5023381;28;20387;-75
2021/10/23 01:47:05;;;;;;;7.63;2.60;;;8.80;84.90;;;;;;5034732;28;21255;-72
2021/10/23 01:49:31;;;;;;;4.40;2.60;;;8.80;85.00;;;;;;5035893;28;20213;-73
2021/10/23 01:51:57;;;;;;;4.00;2.60;;;8.70;85.00;;;;;;5032352;28;20574;-74
2021/10/23 01:54:23;;;;;;;3.10;2.00;;;8.70;85.50;;;;;;5031491;28;20473;-74
2021/10/23 01:56:49;;;;;;;6.47;2.37;;;8.70;85.30;;;;;;5032753;28;21154;-75
2021/10/23 01:59:15;;;;;;;9.53;3.40;;;8.70;85.50;;;;;;5032661;28;20514;-75
2021/10/23 02:01:41;;;;;;;8.83;2.40;;;8.70;85.60;;;;;;5030986;28;20192;-74
2021/10/23 02:04:06;;;;;;;6.60;3.03;;;8.70;85.50;;;;;;5032466;28;20184;-74
2021/10/23 02:06:32;;;;;;;6.57;2.70;;;8.70;85.90;;;;;;5032913;28;20207;-75
2021/10/23 02:08:58;;;;;;;6.10;2.33;;;8.70;85.90;;;;;;5032745;28;20204;-75
2021/10/23 02:11:24;;;;;;;3.60;2.40;;;8.70;85.70;;;;;;5032290;28;20466;-75
2021/10/23 02:13:50;;;;;;;8.83;2.67;;;8.70;85.70;;;;;;5033382;28;20476;-75
2021/10/23 02:16:16;;;;;;;3.83;2.10;;;8.60;86.00;;;;;;5032067;28;20187;-74
2021/10/23 02:18:42;;;;;;;5.57;2.70;;;8.60;86.20;;;;;;5032724;28;20260;-75
2021/10/23 02:21:09;;;;;;;3.80;2.30;;;8.60;86.30;;;;;;5032148;28;20236;-75
2021/10/23 02:23:35;;;;;;;8.90;2.57;;;8.60;86.50;;;;;;5032185;28;20432;-74
2021/10/23 02:26:01;;;;;;;6.70;1.90;;;8.60;86.80;;;;;;5042811;28;21009;-75
2021/10/23 02:28:27;;;;;;;6.27;2.47;;;8.70;87.10;;;;;;5042985;28;20491;-76
2021/10/23 02:30:53;;;;;;;7.97;2.30;;;8.60;87.00;;;;;;5036004;28;20424;-76
2021/10/23 02:33:19;;;;;;;8.97;2.83;;;8.60;87.10;;;;;;5032702;28;20236;-76
2021/10/23 02:35:45;;;;;;;7.40;2.30;;;8.70;87.30;;;;;;5032529;28;20503;-74
2021/10/23 02:38:11;;;;;;;4.93;2.43;;;8.80;87.10;;;;;;5032524;28;20208;-74
2021/10/23 02:40:37;;;;;;;4.87;2.37;;;8.80;87.00;;;;;;5031220;28;20435;-74
2021/10/23 02:43:03;;;;;;;3.80;2.40;;;8.90;86.90;;;;;;5030852;28;20456;-72
2021/10/23 02:45:29;;;;;;;4.93;2.50;;;8.90;86.90;;;;;;5031652;28;20529;-75
2021/10/23 02:47:55;;;;;;;7.70;2.80;;;8.80;86.30;;;;;;5031980;28;20478;-76
2021/10/23 02:50:21;;;;;;;7.70;2.90;;;8.70;86.80;;;;;;5031564;28;20424;-75
2021/10/23 02:52:46;;;;;;;12.93;2.93;;;8.70;87.00;;;;;;5033085;28;20822;-74
2021/10/23 02:55:12;;;;;;;5.70;2.73;;;8.80;86.80;;;;;;5031568;28;20268;-74
2021/10/23 02:57:38;;;;;;;6.53;3.53;;;8.80;86.50;;;;;;5032498;28;20185;-76
2021/10/23 03:00:06;;;;;;;7.10;2.73;;;8.80;86.50;;;;;;5026446;28;20432;-74
2021/10/23 03:02:33;;;;;;;6.70;2.50;;;8.90;86.30;;;;;;5031627;28;20699;-75
2021/10/23 03:05:02;;;;;;;5.50;2.40;;;8.90;86.00;;;;;;5031740;28;20523;-74
2021/10/23 03:07:31;;;;;;;7.90;2.50;;;8.90;86.20;;;;;;5032226;28;20536;-75
2021/10/23 03:09:57;;;;;;;6.40;2.53;;;8.90;86.20;;;;;;5032069;28;20495;-76
2021/10/23 03:12:23;;;;;;;6.20;2.97;;;8.90;86.00;;;;;;5031696;28;21229;-73
2021/10/23 03:14:48;;;;;;;10.00;2.80;;;8.90;86.20;;;;;;5032216;28;20431;-75
2021/10/23 03:17:14;;;;;;;4.50;2.10;;;8.90;86.20;;;;;;5038312;28;20189;-74
2021/10/23 03:19:40;;;;;;;5.10;3.00;;;9.00;86.50;;;;;;5032303;28;20192;-75
2021/10/23 03:22:05;;;;;;;4.20;2.60;;;9.00;86.60;;;;;;5031699;28;20271;-74
2021/10/23 03:24:31;;;;;;;17.43;2.80;;;9.10;86.30;;;;;;5031898;28;20189;-74
2021/10/23 03:26:57;;;;;;;4.93;2.63;;;9.10;85.50;;;;;;5032266;28;20553;-76
2021/10/23 03:29:23;;;;;;;6.73;2.80;;;9.10;85.50;;;;;;5032426;28;20239;-75
2021/10/23 03:31:49;;;;;;;4.83;2.67;;;9.10;85.60;;;;;;5031888;28;20209;-75
2021/10/23 03:34:14;;;;;;;4.63;2.40;;;9.10;85.50;;;;;;5028546;28;20198;-75
2021/10/23 03:36:40;;;;;;;4.90;2.57;;;9.10;85.60;;;;;;5032372;28;20181;-75
2021/10/23 03:39:06;;;;;;;5.80;2.83;;;9.00;85.90;;;;;;5031241;28;20334;-75
2021/10/23 03:41:32;;;;;;;3.90;2.97;;;9.10;85.70;;;;;;5032265;28;20213;-75
2021/10/23 03:43:58;;;;;;;4.90;2.33;;;9.10;85.60;;;;;;5032276;28;20270;-75
2021/10/23 03:46:23;;;;;;;9.30;3.07;;;9.00;85.90;;;;;;5033002;28;20439;-76
2021/10/23 03:48:49;;;;;;;5.90;3.27;;;8.90;86.30;;;;;;5033315;28;20204;-74
2021/10/23 03:51:15;;;;;;;7.60;2.50;;;8.90;86.80;;;;;;5031474;28;20609;-74
2021/10/23 03:53:41;;;;;;;7.10;3.00;;;8.90;86.80;;;;;;5026621;28;20224;-76
2021/10/23 03:56:06;;;;;;;6.10;3.10;;;8.90;86.90;;;;;;5035674;28;20474;-75
2021/10/23 03:58:32;;;;;;;7.60;2.90;;;8.90;87.00;;;;;;5039729;28;20185;-75
2021/10/23 04:00:58;;;;;;;6.77;2.77;;;8.90;86.80;;;;;;5043549;28;20264;-75
2021/10/23 04:03:24;;;;;;;7.50;2.70;;;8.90;86.80;;;;;;5041219;28;20494;-73
2021/10/23 04:05:50;;;;;;;3.80;2.67;;;8.90;86.90;;;;;;5036001;28;20223;-75
2021/10/23 04:08:15;;;;;;;7.20;2.90;;;8.80;86.90;;;;;;5034517;28;20197;-72
2021/10/23 04:10:41;;;;;;;5.90;3.17;;;8.80;87.30;;;;;;5033820;28;20192;-73
2021/10/23 04:13:07;;;;;;;12.33;3.00;;;8.70;87.60;;;;;;5034606;28;20201;-73
2021/10/23 04:15:33;;;;;;;13.63;3.10;;;8.60;87.70;;;;;;5031300;28;20181;-75
2021/10/23 04:17:59;;;;;;;8.90;2.90;;;8.60;88.30;;;;;;5030683;28;20612;-75
2021/10/23 04:20:25;;;;;;;7.00;2.87;;;8.50;88.70;;;;;;5030789;28;20452;-73
2021/10/23 04:22:51;;;;;;;6.17;2.90;;;8.50;88.90;;;;;;5035477;28;20457;-74
2021/10/23 04:25:18;;;;;;;8.50;3.40;;;8.50;89.00;;;;;;5040709;28;20416;-75
2021/10/23 04:27:44;;;;;;;13.47;3.83;;;8.50;89.20;;;;;;5037192;28;20427;-73
2021/10/23 04:30:10;;;;;;;5.70;2.80;;;8.40;89.50;;;;;;5033922;28;20460;-76
2021/10/23 04:32:36;;;;;;;8.50;3.30;;;8.40;89.70;;;;;;5033460;28;20217;-74
2021/10/23 04:35:03;;;;;;;4.47;3.00;;;8.40;89.70;;;;;;5036127;28;20423;-74
2021/10/23 04:37:30;;;;;;;6.03;3.20;;;8.40;89.60;;;;;;5029027;28;20415;-75
2021/10/23 04:39:55;;;;;;;7.17;3.07;;;8.40;89.70;;;;;;5033871;28;20525;-74
2021/10/23 04:42:21;;;;;;;5.90;2.90;;;8.40;89.90;;;;;;5039929;28;20872;-75
2021/10/23 04:44:47;;;;;;;6.77;3.40;;;8.30;90.00;;;;;;5039402;28;20189;-75
2021/10/23 04:47:12;;;;;;;8.67;3.40;;;8.40;90.20;;;;;;5033882;28;20185;-73
2021/10/23 04:49:38;;;;;;;9.20;3.20;;;8.40;90.00;;;;;;5033900;28;20216;-73
2021/10/23 04:52:04;;;;;;;6.03;3.00;;;8.40;90.00;;;;;;5031323;28;20233;-73
2021/10/23 04:54:30;;;;;;;8.40;3.57;;;8.30;90.20;;;;;;5030864;28;20184;-75
2021/10/23 04:56:55;;;;;;;5.17;2.53;;;8.40;90.50;;;;;;5030669;28;20533;-75
2021/10/23 04:59:21;;;;;;;6.43;2.67;;;8.40;90.30;;;;;;5031114;28;20707;-74
2021/10/23 05:01:47;;;;;;;4.60;2.73;;;8.40;90.30;;;;;;5031676;28;20262;-74
2021/10/23 05:04:12;;;;;;;5.27;3.00;;;8.50;90.40;;;;;;5030533;28;20208;-73
2021/10/23 05:06:38;;;;;;;6.30;3.10;;;8.60;90.20;;;;;;5031827;28;20223;-75
2021/10/23 05:09:04;;;;;;;7.40;3.30;;;8.50;90.10;;;;;;5034382;28;20235;-75
2021/10/23 05:11:30;;;;;;;6.07;2.93;;;8.50;90.20;;;;;;5034556;28;20186;-76
2021/10/23 05:13:55;;;;;;;6.60;3.30;;;8.40;90.50;;;;;;5033786;28;20184;-75
2021/10/23 05:16:21;;;;;;;7.13;3.50;;;8.30;90.70;;;;;;5024038;28;20185;-74
2021/10/23 05:18:48;;;;;;;5.33;3.20;;;8.40;90.90;;;;;;5038551;28;20181;-76
2021/10/23 05:21:19;;;;;;;5.03;2.67;;;8.40;90.90;;;;;;5037886;28;20239;-75
2021/10/23 05:23:46;;;;;;;7.87;3.00;;;8.40;90.90;;;;;;5035035;28;20443;-74
2021/10/23 05:26:13;;;;;;;7.13;3.67;;;8.30;91.00;;;;;;5037950;28;20428;-74
2021/10/23 05:28:39;;;;;;;5.80;3.20;;;8.40;90.90;;;;;;5039064;28;20459;-77
2021/10/23 05:31:05;;;;;;;6.63;3.00;;;8.30;91.00;;;;;;5036353;28;20523;-74
2021/10/23 05:33:31;;;;;;;5.97;3.70;;;8.30;90.80;;;;;;5035036;28;20507;-74
2021/10/23 05:35:57;;;;;;;7.10;3.90;;;8.30;90.70;;;;;;5034135;28;20498;-74
2021/10/23 05:38:22;;;;;;;8.53;3.30;;;8.30;90.90;;;;;;5033801;28;20431;-75
2021/10/23 05:40:48;;;;;;;4.63;2.93;;;8.40;90.90;;;;;;5033992;28;20510;-74
2021/10/23 05:43:14;;;;;;;7.60;3.60;;;8.40;90.90;;;;;;5032455;28;20613;-75
2021/10/23 05:45:40;;;;;;;5.00;2.83;;;8.40;90.70;;;;;;5033078;28;20185;-75
2021/10/23 05:48:05;;;;;;;5.83;3.23;;;8.40;90.70;;;;;;5033392;28;20185;-75
2021/10/23 05:50:31;;;;;;;7.77;3.40;;;8.50;90.40;;;;;;5034064;28;20181;-74
2021/10/23 05:52:57;;;;;;;5.57;3.10;;;8.50;90.30;;;;;;5034180;28;20283;-74
2021/10/23 05:55:23;;;;;;;7.60;3.50;;;8.40;90.30;;;;;;5033124;28;20558;-75
2021/10/23 05:57:48;;;;;;;7.53;4.07;;;8.50;90.30;;;;;;5033353;28;20189;-76
2021/10/23 06:00:15;;;;;;;6.37;3.50;;;8.40;90.00;;;;;;5033593;28;20260;-75
2021/10/23 06:02:41;;;;;;;8.73;3.80;;;8.40;90.40;;;;;;5033440;28;20696;-74
2021/10/23 06:05:08;;;;;;;6.57;3.00;;;8.50;90.50;;;;;;5032399;28;20415;-76
2021/10/23 06:07:38;;;;;;;7.20;2.70;;;8.60;90.50;;;;;;5033644;28;21045;-78
2021/10/23 06:10:07;;;;;;;8.33;3.27;;;8.60;90.10;;;;;;5033254;28;20498;-75
2021/10/23 06:12:33;;;;;;;6.03;3.00;;;8.70;89.50;;;;;;5033466;28;20526;-75
2021/10/23 06:14:59;;;;;;;8.33;3.80;;;8.80;89.00;;;;;;5031497;28;20489;-75
2021/10/23 06:17:25;;;;;;;6.20;3.53;;;8.80;88.60;;;;;;5033445;28;20503;-74
2021/10/23 06:19:51;;;;;;;10.47;3.73;;;8.90;87.80;;;;;;5033268;28;20459;-75
2021/10/23 06:22:17;;;;;;;5.00;3.60;;;8.90;87.10;;;;;;5032621;28;20480;-76
2021/10/23 06:24:43;;;;;;;9.50;3.40;;;8.80;87.10;;;;;;5028623;28;20272;-75
2021/10/23 06:27:09;;;;;;;4.80;3.27;;;8.70;87.60;;;;;;5032193;28;20419;-74
2021/10/23 06:29:35;;;;;;;5.70;3.60;;;8.60;88.40;;;;;;5033023;28;20463;-76
2021/10/23 06:32:01;;;;;;;5.93;3.40;;;8.50;88.90;;;;;;5033331;28;20205;-73
2021/10/23 06:34:27;;;;;;;5.17;2.90;;;8.50;89.30;;;;;;5032492;28;20268;-75
2021/10/23 06:36:53;;;;;;;6.97;3.73;;;8.40;89.30;;;;;;5033624;28;20264;-76
2021/10/23 06:39:19;;;;;;;6.83;3.33;;;8.50;89.30;;;;;;5032860;28;20527;-75
2021/10/23 06:41:45;;;;;;;8.23;3.73;;;8.50;89.20;;;;;;5031837;28;20427;-74
2021/10/23 06:44:11;;;;;;;5.57;3.37;;;8.50;89.20;;;;;;5032358;28;20552;-75
2021/10/23 06:46:38;;;;;;;9.50;3.63;;;8.50;89.00;;;;;;5033090;28;20177;-74
2021/10/23 06:49:05;;;;;;;4.03;3.10;;;8.40;89.50;;;;;;5033162;28;20451;-73
2021/10/23 06:51:31;;;;;;;8.50;3.90;;;8.40;89.50;;;;;;5033292;28;20412;-76
2021/10/23 06:53:58;;;;;;;6.00;2.70;;;8.50;89.20;;;;;;5032462;28;20742;-76
2021/10/23 06:56:24;;;;;;;10.57;3.67;;;8.40;89.30;;;;;;5034745;28;20439;-74
2021/10/23 06:58:50;;;;;;;6.10;3.33;;;8.40;89.00;;;;;;5034100;28;20629;-77
2021/10/23 07:01:18;;;;;;;7.77;3.87;;;8.50;88.90;;;;;;5034192;28;20438;-74
2021/10/23 07:03:43;;;;;;;10.73;4.83;;;8.50;88.90;;;;;;5031720;28;20490;-75
2021/10/23 07:06:09;;;;;;;4.60;3.17;;;8.60;88.60;;;;;;5033333;28;20938;-78
2021/10/23 07:08:35;;;;;;;7.10;3.87;;;8.60;88.60;;;;;;5035916;28;20276;-75
2021/10/23 07:11:01;;;;;;;7.90;3.67;;;8.60;88.60;;;;;;5034385;28;20867;-76
2021/10/23 07:13:27;;;;;;;11.23;3.30;;;8.70;88.40;;;;;;5038063;28;20224;-76
2021/10/23 07:15:52;;;;;;;4.70;3.40;;;8.80;88.40;;;;;;5034192;28;20260;-76
2021/10/23 07:18:18;;;;;;;7.00;2.90;;;8.90;87.30;;;;;;5031661;28;20185;-75
2021/10/23 07:20:44;;;;;;;12.13;3.33;;;9.00;87.00;;;;;;5033296;28;20177;-75
2021/10/23 07:23:10;;;;;;;7.53;3.30;;;9.00;86.20;;;;;;5032887;28;20978;-76
2021/10/23 07:25:35;;;;;;;10.13;3.80;;;9.00;86.60;;;;;;5033201;28;20243;-77
2021/10/23 07:28:01;;;;;;;5.23;3.57;;;9.10;86.00;;;;;;5033524;28;20262;-77
2021/10/23 07:30:27;;;;;;;12.67;3.13;;;9.20;85.70;;;;;;5032502;28;20592;-75
2021/10/23 07:32:54;;;;;;;9.73;3.93;;;9.20;85.70;;;;;;5033156;28;20436;-76
2021/10/23 07:35:20;;;;;;;6.27;3.37;;;9.30;85.00;;;;;;5033480;28;20204;-78
2021/10/23 07:37:45;;;;;;;4.70;3.03;;;9.30;84.40;;;;;;5034954;28;20408;-77
2021/10/23 07:40:13;;;;;;;7.80;3.13;;;9.10;85.00;;;;;;5035761;28;20177;-76
2021/10/23 07:42:41;;;;;;;7.43;3.10;;;9.00;84.90;;;;;;5039505;28;20212;-75
2021/10/23 07:45:09;;;;;;;6.37;3.60;;;8.90;85.70;;;;;;5038565;28;20423;-74
2021/10/23 07:47:40;;;;;;;16.03;4.43;;;8.80;85.90;;;;;;5026925;28;20436;-73
2021/10/23 07:50:07;;;;;;;8.53;3.57;;;8.90;85.70;;;;;;5038736;28;21028;-73
2021/10/23 07:52:33;;;;;;;7.07;3.10;;;8.90;85.60;;;;;;5036851;28;20479;-75
2021/10/23 07:54:58;;;;;;;7.17;3.73;;;8.80;85.50;;;;;;5030514;28;20818;-75
2021/10/23 07:57:24;;;;;;;5.50;3.97;;;8.80;85.70;;;;;;5028346;28;20443;-73
2021/10/23 07:59:50;;;;;;;7.27;3.90;;;8.70;85.70;;;;;;5030686;28;20217;-73
2021/10/23 08:02:16;;;;;;;8.03;3.67;;;8.80;85.90;;;;;;5030642;28;20216;-75
2021/10/23 08:04:41;;;;;;;11.80;3.40;;;8.90;84.70;;;;;;5027694;28;20493;-74
2021/10/23 08:07:08;;;;;;;8.90;3.20;;;8.90;85.30;;;;;;5030009;28;20558;-73
2021/10/23 08:09:35;;;;;;;10.77;3.63;;;9.00;84.70;;;;;;5032945;28;21034;-73
2021/10/23 08:12:03;;;;;;;6.30;3.43;;;9.00;84.90;;;;;;5032431;28;20456;-74
2021/10/23 08:14:29;;;;;;;8.93;4.43;;;9.00;84.40;;;;;;5027811;28;20404;-74
2021/10/23 08:16:57;;;;;;;6.83;3.30;;;9.10;84.70;;;;;;5038032;28;20520;-75
2021/10/23 08:19:23;;;;;;;12.77;3.23;;;9.10;84.70;;;;;;5035067;28;20840;-76
2021/10/23 08:21:50;;;;;;;6.43;2.90;;;9.20;84.40;;;;;;5033503;28;20432;-74
2021/10/23 08:24:16;;;;;;;6.63;3.13;;;9.20;83.80;;;;;;5037220;28;20416;-73
2021/10/23 08:26:42;;;;;;;5.83;3.23;;;9.30;83.80;;;;;;5040381;28;20993;-73
2021/10/23 08:29:08;;;;;;;6.60;3.70;;;9.30;83.40;;;;;;5038776;28;20211;-73
2021/10/23 08:31:34;;;;;;;5.97;3.27;;;9.20;83.70;;;;;;5033250;28;20527;-73
2021/10/23 08:34:00;;;;;;;4.60;3.03;;;9.20;84.10;;;;;;5030226;28;20412;-74
2021/10/23 08:36:27;;;;;;;11.97;3.20;;;9.20;84.40;;;;;;5030530;28;20268;-72
2021/10/23 08:38:54;;;;;;;8.60;3.03;;;9.30;84.40;;;;;;5028121;28;20455;-73
2021/10/23 08:41:20;;;;;;;6.50;3.40;;;9.40;83.60;;;;;;5036361;28;20531;-75
2021/10/23 08:43:47;;;;;;;8.83;3.40;;;9.50;83.60;;;;;;5040739;28;20448;-75
2021/10/23 08:46:23;;;;;;;7.50;3.57;;;9.50;83.60;;;;;;5041117;28;20440;-74
2021/10/23 08:48:53;;;;;;;7.43;3.30;;;9.60;83.30;;;;;;5036571;28;21055;-73
2021/10/23 08:51:23;;;;;;;7.57;3.57;;;9.60;83.10;;;;;;5038270;28;20411;-75
2021/10/23 08:53:50;;;;;;;4.13;3.37;;;9.60;83.40;;;;;;5036123;28;20431;-75
2021/10/23 08:56:15;;;;;;;6.30;3.00;;;9.70;83.40;;;;;;5034965;28;20426;-74
2021/10/23 08:58:42;;;;;;;5.70;3.43;;;9.80;83.30;;;;;;5037648;28;20420;-74
2021/10/23 09:01:14;;;;;;;5.20;2.73;;;9.90;82.40;;;;;;5037336;28;20680;-74
2021/10/23 09:03:47;;;;;;;7.33;3.30;;;9.90;82.70;;;;;;5040041;28;20447;-75
2021/10/23 09:06:27;;;;;;;6.67;3.20;;;10.10;82.20;;;;;;5029919;28;20449;-74
2021/10/23 09:09:11;;;;;;;5.80;3.67;;;10.20;81.90;;;;;;5035581;28;20490;-72
2021/10/23 09:11:41;;;;;;;8.80;3.70;;;10.30;81.90;;;;;;5035067;28;20419;-72
2021/10/23 09:14:22;;;;;;;7.57;3.80;;;10.30;81.80;;;;;;5034527;28;20420;-72
2021/10/23 09:17:04;;;;;;;5.27;3.00;;;10.50;81.40;;;;;;5031928;28;20529;-74
2021/10/23 09:19:48;;;;;;;7.70;3.80;;;10.60;81.40;;;;;;5033589;28;20422;-74
2021/10/23 09:22:35;;;;;;;5.27;3.03;;;10.80;81.20;;;;;;5031865;28;20489;-75
2021/10/23 09:25:12;;;;;;;7.27;3.17;;;11.00;79.90;;;;;;5033019;28;20447;-72
2021/10/23 09:27:59;;;;;;;7.60;3.53;;;11.10;79.20;;;;;;5031496;28;20443;-74
2021/10/23 09:30:32;;;;;;;7.07;3.43;;;11.20;78.40;;;;;;5032466;28;20793;-74
2021/10/23 09:33:11;;;;;;;6.40;3.40;;;11.40;78.00;;;;;;5033087;28;21143;-74
2021/10/23 09:35:41;;;;;;;6.90;4.00;;;11.50;77.40;;;;;;5031139;28;20431;-75
2021/10/23 09:38:12;;;;;;;9.07;4.27;;;11.70;77.30;;;;;;5039147;28;20496;-75
2021/10/23 09:40:39;;;;;;;9.03;3.27;;;11.90;76.70;;;;;;5039468;28;20431;-74
2021/10/23 09:43:06;;;;;;;6.70;3.30;;;12.10;75.80;;;;;;5040502;28;20467;-75
2021/10/23 09:45:31;;;;;;;9.20;4.23;;;12.20;74.90;;;;;;5040854;28;20935;-73
2021/10/23 09:48:10;;;;;;;35.90;18.27;;;12.30;73.70;;;;;;5041405;28;20463;-77
2021/10/23 09:50:36;;;;;;;9.93;5.60;;;12.30;73.90;;;;;;5034092;28;20253;-74
2021/10/23 09:53:05;;;;;;;11.70;3.73;;;12.30;73.60;;;;;;5041381;28;20502;-75
2021/10/23 09:55:52;;;;;;;10.40;5.33;;;12.40;73.30;;;;;;5032947;28;20503;-75
2021/10/23 09:58:24;;;;;;;4.33;3.57;;;12.40;73.20;;;;;;5042595;28;20477;-76
2021/10/23 10:00:52;;;;;;;7.50;4.30;;;12.50;73.20;;;;;;5040725;28;20554;-74
2021/10/23 10:03:19;;;;;;;5.40;3.43;;;12.50;72.30;;;;;;5038679;28;20436;-73
2021/10/23 10:06:05;;;;;;;8.00;4.90;;;12.60;72.40;;;;;;5037649;28;20427;-71
2021/10/23 10:08:31;;;;;;;11.50;4.83;;;12.60;72.30;;;;;;5036852;28;20468;-74
2021/10/23 10:10:57;;;;;;;7.07;3.80;;;12.60;71.80;;;;;;5034184;28;20423;-74
2021/10/23 10:13:26;;;;;;;8.43;3.40;;;12.70;70.80;;;;;;5033697;28;20542;-75
2021/10/23 10:15:53;;;;;;;8.07;3.30;;;12.90;70.70;;;;;;5031417;28;20428;-75
2021/10/23 10:18:21;;;;;;;7.50;3.80;;;13.10;69.20;;;;;;5031471;28;20428;-75
2021/10/23 10:20:50;;;;;;;5.73;3.00;;;13.60;69.10;;;;;;5031881;28;20990;-74
2021/10/23 10:23:17;;;;;;;6.20;4.13;;;14.00;64.70;;;;;;5031624;28;20536;-75
2021/10/23 10:25:43;;;;;;;6.27;4.23;;;14.20;64.20;;;;;;5031472;28;20425;-73
2021/10/23 10:28:14;;;;;;;4.60;3.50;;;14.70;62.60;;;;;;5031673;28;20433;-73
2021/10/23 10:30:42;;;;;;;12.00;4.47;;;13.90;65.30;;;;;;5031409;28;20191;-73
2021/10/23 10:33:35;;;;;;;8.70;4.93;;;13.40;68.20;;;;;;5030365;28;20997;-74
2021/10/23 10:36:21;;;;;;;8.30;4.27;;;13.10;69.40;;;;;;5029938;28;20422;-74
2021/10/23 10:39:05;;;;;;;7.70;5.27;;;12.70;71.40;;;;;;5026552;28;20447;-74
2021/10/23 10:44:29;;;;;;;11.80;5.73;;;11.70;74.90;;;;;;5031661;28;20491;-74
2021/10/23 10:46:55;;;;;;;12.67;5.73;;;11.50;77.40;;;;;;5005058;28;20635;-75
2021/10/23 10:49:53;;;;;;;8.80;5.67;;;11.30;78.60;;;;;;4993479;28;20559;-76
2021/10/23 10:52:40;;;;;;;10.70;6.17;;;11.20;79.50;;;;;;5015826;28;20294;-74
2021/10/23 10:55:12;;;;;;;17.53;5.17;;;11.20;79.70;;;;;;4997221;28;20772;-75
2021/10/23 10:57:55;;;;;;;12.57;5.40;;;11.30;79.50;;;;;;5014232;28;20428;-74
2021/10/23 11:00:20;;;;;;;19.17;4.43;;;11.80;79.20;;;;;;5017300;28;20491;-74
2021/10/23 11:02:46;;;;;;;23.00;11.90;;;12.50;75.80;;;;;;5014036;28;20922;-75
2021/10/23 11:05:20;;;;;;;7.20;3.73;;;13.20;73.50;;;;;;5006890;28;20193;-74
2021/10/23 11:08:05;;;;;;;9.83;4.60;;;13.20;68.00;;;;;;5008690;28;20673;-74
2021/10/23 11:10:55;;;;;;;9.53;4.83;;;13.60;68.80;;;;;;5007219;28;20917;-74
2021/10/23 11:13:29;;;;;;;5.73;4.13;;;13.90;67.60;;;;;;5008040;28;20524;-74
2021/10/23 11:15:55;;;;;;;9.27;4.93;;;13.90;66.00;;;;;;5008233;28;20426;-74
2021/10/23 11:18:21;;;;;;;8.67;4.93;;;13.80;66.60;;;;;;5026241;28;20416;-74
2021/10/23 11:20:47;;;;;;;10.00;4.77;;;13.70;66.90;;;;;;5008034;28;20432;-74
2021/10/23 11:23:20;;;;;;;5.43;4.00;;;13.90;66.70;;;;;;5019908;28;20433;-74
2021/10/23 11:25:46;;;;;;;6.67;3.90;;;14.10;66.10;;;;;;5029466;28;20216;-75
2021/10/23 11:28:12;;;;;;;6.30;4.00;;;14.10;65.30;;;;;;5029272;28;20452;-74
2021/10/23 11:30:42;;;;;;;9.40;4.07;;;14.00;64.70;;;;;;5031180;28;20181;-75
2021/10/23 11:33:12;;;;;;;6.70;3.30;;;14.10;63.90;;;;;;5030757;28;20197;-76
2021/10/23 11:35:43;;;;;;;8.13;4.13;;;14.10;63.70;;;;;;5027649;28;20421;-75
2021/10/23 11:38:16;;;;;;;5.90;3.70;;;14.10;63.10;;;;;;5029131;28;20965;-76
2021/10/23 11:40:42;;;;;;;4.47;3.17;;;14.50;63.10;;;;;;5029885;28;20513;-73
2021/10/23 11:43:15;;;;;;;8.40;3.73;;;15.30;60.60;;;;;;5029939;28;20459;-75
2021/10/23 11:45:40;;;;;;;4.43;3.07;;;15.60;59.10;;;;;;5029462;28;20424;-75
2021/10/23 11:48:08;;;;;;;5.20;2.73;;;15.60;55.40;;;;;;5028612;28;20434;-75
2021/10/23 11:50:50;;;;;;;5.90;3.40;;;15.60;54.80;;;;;;5029645;28;20466;-75
2021/10/23 11:53:22;;;;;;;3.77;3.00;;;15.40;55.20;;;;;;5028139;28;20788;-74
2021/10/23 11:56:04;;;;;;;5.97;3.10;;;14.90;55.40;;;;;;5030342;28;20421;-75
2021/10/23 11:58:33;;;;;;;4.53;3.00;;;15.00;56.40;;;;;;5023049;28;20517;-74
2021/10/23 12:01:01;;;;;;;4.60;2.30;;;15.60;55.60;;;;;;5030261;28;20957;-74
2021/10/23 12:03:32;;;;;;;4.83;2.40;;;16.30;52.10;;;;;;5030611;28;20455;-74
2021/10/23 12:05:57;;;;;;;7.80;3.40;;;16.70;50.10;;;;;;5031418;28;20455;-76
2021/10/23 12:08:30;;;;;;;7.77;4.23;;;17.00;49.80;;;;;;5031902;28;22356;-75
2021/10/23 12:11:14;;;;;;;6.47;3.70;;;16.40;52.90;;;;;;5034783;28;20435;-75
2021/10/23 12:14:00;;;;;;;7.87;4.40;;;15.20;55.70;;;;;;5029001;28;20525;-75
2021/10/23 12:16:46;;;;;;;6.20;3.73;;;14.90;57.00;;;;;;5032476;28;20421;-74
2021/10/23 12:19:12;;;;;;;6.27;2.90;;;14.80;56.80;;;;;;5034979;28;20460;-76
2021/10/23 12:21:51;;;;;;;3.77;3.00;;;14.30;56.40;;;;;;5036621;28;20574;-75
2021/10/23 12:24:45;;;;;;;5.63;2.97;;;13.80;56.50;;;;;;5033095;28;20187;-73
2021/10/23 12:27:24;;;;;;;6.70;2.63;;;13.60;57.30;;;;;;5030185;28;20448;-75
2021/10/23 12:29:57;;;;;;;4.83;2.87;;;13.50;57.40;;;;;;5030419;28;20463;-76
2021/10/23 12:32:44;;;;;;;6.33;2.63;;;13.30;59.50;;;;;;5030372;28;20463;-75
2021/10/23 12:35:31;;;;;;;5.53;3.33;;;13.00;58.90;;;;;;5028822;28;20439;-75
2021/10/23 12:38:00;;;;;;;6.80;3.70;;;12.90;60.70;;;;;;5030875;28;20528;-76
2021/10/23 12:40:39;;;;;;;5.27;2.77;;;13.00;59.90;;;;;;5028313;28;20436;-76
2021/10/23 12:43:09;;;;;;;3.60;2.40;;;13.10;58.90;;;;;;5031362;28;20504;-74
2021/10/23 12:45:40;;;;;;;6.43;2.67;;;12.90;58.90;;;;;;5030973;28;20522;-76
2021/10/23 12:48:17;;;;;;;4.37;2.87;;;12.90;59.50;;;;;;5031438;28;20452;-76
2021/10/23 12:50:48;;;;;;;9.00;3.67;;;12.80;60.00;;;;;;5032303;28;20944;-77
2021/10/23 12:53:14;;;;;;;8.80;3.50;;;12.70;60.10;;;;;;5033631;28;20454;-75
2021/10/23 12:55:40;;;;;;;4.87;2.30;;;13.00;59.50;;;;;;5032578;28;20783;-75
2021/10/23 12:58:06;;;;;;;5.33;2.90;;;13.00;58.50;;;;;;5031336;28;20423;-75
2021/10/23 13:00:32;;;;;;;3.80;2.20;;;13.10;58.00;;;;;;5030961;28;20444;-75
2021/10/23 13:02:58;;;;;;;3.40;2.40;;;13.30;56.50;;;;;;5030363;28;20220;-76
2021/10/23 13:05:24;;;;;;;5.37;2.90;;;13.50;56.80;;;;;;5031589;28;20428;-75